sensor_id;sensor_type;location;lat;lon;timestamp;P1;durP1;ratioP1;P2;durP2;ratioP2
13985;SDS011;7067;51.832;8.296;2023-07-09T00:01:55;7.55;;;6.82;;
13985;SDS011;7067;51.832;8.296;2023-07-09T00:04:21;7.78;;;7.07;;
13985;SDS011;7067;51.832;8.296;2023-07-09T00:06:46;9.02;;;7.07;;
13985;SDS011;7067;51.832;8.296;2023-07-09T00:09:16;7.22;;;6.65;;
13985;SDS011;7067;51.832;8.296;2023-07-09T00:11:43;6.88;;;6.38;;
13985;SDS011;7067;51.832;8.296;2023-07-09T00:14:13;7.15;;;6.47;;
13985;SDS011;7067;51.832;8.296;2023-07-09T00:16:39;8.27;;;7.10;;
13985;SDS011;7067;51.832;8.296;2023-07-09T00:19:12;7.10;;;6.55;;
13985;SDS011;7067;51.832;8.296;2023-07-09T00:21:41;7.80;;;7.07;;
13985;SDS011;7067;51.832;8.296;2023-07-09T00:24:07;8.80;;;7.15;;
13985;SDS011;7067;51.832;8.296;2023-07-09T00:26:35;7.18;;;6.40;;
13985;SDS011;7067;51.832;8.296;2023-07-09T00:29:03;7.20;;;6.50;;
13985;SDS011;7067;51.832;8.296;2023-07-09T00:31:28;8.40;;;7.15;;
13985;SDS011;7067;51.832;8.296;2023-07-09T00:33:54;7.65;;;6.95;;
13985;SDS011;7067;51.832;8.296;2023-07-09T00:36:27;8.95;;;6.68;;
13985;SDS011;7067;51.832;8.296;2023-07-09T00:38:56;7.60;;;6.82;;
13985;SDS011;7067;51.832;8.296;2023-07-09T00:41:24;7.30;;;6.53;;
13985;SDS011;7067;51.832;8.296;2023-07-09T00:43:50;8.30;;;7.43;;
13985;SDS011;7067;51.832;8.296;2023-07-09T00:47:10;9.48;;;8.50;;
13985;SDS011;7067;51.832;8.296;2023-07-09T00:49:06;8.68;;;7.93;;
13985;SDS011;7067;51.832;8.296;2023-07-09T00:51:35;9.05;;;7.70;;
13985;SDS011;7067;51.832;8.296;2023-07-09T00:54:10;8.38;;;7.68;;
13985;SDS011;7067;51.832;8.296;2023-07-09T00:56:42;8.95;;;8.25;;
13985;SDS011;7067;51.832;8.296;2023-07-09T00:59:10;8.68;;;7.88;;
13985;SDS011;7067;51.832;8.296;2023-07-09T01:01:38;9.52;;;8.57;;
13985;SDS011;7067;51.832;8.296;2023-07-09T01:04:06;9.13;;;8.38;;
13985;SDS011;7067;51.832;8.296;2023-07-09T01:06:37;11.18;;;8.32;;
13985;SDS011;7067;51.832;8.296;2023-07-09T01:09:05;9.13;;;8.20;;
13985;SDS011;7067;51.832;8.296;2023-07-09T01:11:31;8.32;;;7.63;;
13985;SDS011;7067;51.832;8.296;2023-07-09T01:13:57;8.43;;;7.63;;
13985;SDS011;7067;51.832;8.296;2023-07-09T01:16:48;9.85;;;8.15;;
13985;SDS011;7067;51.832;8.296;2023-07-09T01:19:14;9.13;;;8.23;;
13985;SDS011;7067;51.832;8.296;2023-07-09T01:21:41;8.82;;;8.02;;
13985;SDS011;7067;51.832;8.296;2023-07-09T01:24:14;8.55;;;7.75;;
13985;SDS011;7067;51.832;8.296;2023-07-09T01:26:44;8.68;;;7.97;;
13985;SDS011;7067;51.832;8.296;2023-07-09T01:29:11;9.75;;;8.82;;
13985;SDS011;7067;51.832;8.296;2023-07-09T01:31:37;9.98;;;8.98;;
13985;SDS011;7067;51.832;8.296;2023-07-09T01:34:02;9.88;;;8.88;;
13985;SDS011;7067;51.832;8.296;2023-07-09T01:36:28;12.40;;;7.97;;
13985;SDS011;7067;51.832;8.296;2023-07-09T01:38:53;9.18;;;8.25;;
13985;SDS011;7067;51.832;8.296;2023-07-09T01:41:19;9.38;;;8.48;;
13985;SDS011;7067;51.832;8.296;2023-07-09T01:43:45;8.95;;;8.20;;
13985;SDS011;7067;51.832;8.296;2023-07-09T01:46:11;10.13;;;9.23;;
13985;SDS011;7067;51.832;8.296;2023-07-09T01:48:39;8.90;;;8.20;;
13985;SDS011;7067;51.832;8.296;2023-07-09T01:51:14;8.77;;;8.07;;
13985;SDS011;7067;51.832;8.296;2023-07-09T01:53:43;8.85;;;7.75;;
13985;SDS011;7067;51.832;8.296;2023-07-09T01:56:11;15.02;;;8.15;;
13985;SDS011;7067;51.832;8.296;2023-07-09T01:58:37;8.48;;;7.88;;
13985;SDS011;7067;51.832;8.296;2023-07-09T02:01:06;9.07;;;8.27;;
13985;SDS011;7067;51.832;8.296;2023-07-09T02:03:32;9.25;;;8.45;;
13985;SDS011;7067;51.832;8.296;2023-07-09T02:05:58;8.60;;;7.85;;
13985;SDS011;7067;51.832;8.296;2023-07-09T02:08:24;9.82;;;8.15;;
13985;SDS011;7067;51.832;8.296;2023-07-09T02:10:50;9.07;;;7.88;;
13985;SDS011;7067;51.832;8.296;2023-07-09T02:13:15;8.73;;;7.97;;
13985;SDS011;7067;51.832;8.296;2023-07-09T02:15:42;9.88;;;8.20;;
13985;SDS011;7067;51.832;8.296;2023-07-09T02:18:08;8.90;;;8.10;;
13985;SDS011;7067;51.832;8.296;2023-07-09T02:20:34;8.43;;;7.72;;
13985;SDS011;7067;51.832;8.296;2023-07-09T02:22:59;8.77;;;7.93;;
13985;SDS011;7067;51.832;8.296;2023-07-09T02:25:25;9.65;;;7.75;;
13985;SDS011;7067;51.832;8.296;2023-07-09T02:27:50;8.15;;;7.50;;
13985;SDS011;7067;51.832;8.296;2023-07-09T02:30:15;8.68;;;7.90;;
13985;SDS011;7067;51.832;8.296;2023-07-09T02:32:41;8.95;;;8.13;;
13985;SDS011;7067;51.832;8.296;2023-07-09T02:35:06;10.13;;;8.85;;
13985;SDS011;7067;51.832;8.296;2023-07-09T02:37:32;9.10;;;7.97;;
13985;SDS011;7067;51.832;8.296;2023-07-09T02:39:58;10.70;;;8.30;;
13985;SDS011;7067;51.832;8.296;2023-07-09T02:42:23;9.18;;;7.80;;
13985;SDS011;7067;51.832;8.296;2023-07-09T02:44:49;9.00;;;8.20;;
13985;SDS011;7067;51.832;8.296;2023-07-09T02:47:14;7.70;;;7.10;;
13985;SDS011;7067;51.832;8.296;2023-07-09T02:49:40;8.05;;;7.35;;
13985;SDS011;7067;51.832;8.296;2023-07-09T02:52:06;8.13;;;7.32;;
13985;SDS011;7067;51.832;8.296;2023-07-09T02:54:32;8.25;;;7.55;;
13985;SDS011;7067;51.832;8.296;2023-07-09T02:56:57;8.15;;;7.30;;
13985;SDS011;7067;51.832;8.296;2023-07-09T02:59:22;9.27;;;8.13;;
13985;SDS011;7067;51.832;8.296;2023-07-09T03:01:49;8.35;;;7.55;;
13985;SDS011;7067;51.832;8.296;2023-07-09T03:04:14;7.90;;;7.07;;
13985;SDS011;7067;51.832;8.296;2023-07-09T03:06:40;7.95;;;7.20;;
13985;SDS011;7067;51.832;8.296;2023-07-09T03:09:05;8.75;;;7.95;;
13985;SDS011;7067;51.832;8.296;2023-07-09T03:11:32;8.55;;;7.75;;
13985;SDS011;7067;51.832;8.296;2023-07-09T03:13:59;8.43;;;7.70;;
13985;SDS011;7067;51.832;8.296;2023-07-09T03:16:26;9.25;;;8.45;;
13985;SDS011;7067;51.832;8.296;2023-07-09T03:18:52;9.25;;;8.55;;
13985;SDS011;7067;51.832;8.296;2023-07-09T03:21:19;9.98;;;9.00;;
13985;SDS011;7067;51.832;8.296;2023-07-09T03:23:44;9.27;;;8.43;;
13985;SDS011;7067;51.832;8.296;2023-07-09T03:26:10;9.85;;;9.05;;
13985;SDS011;7067;51.832;8.296;2023-07-09T03:28:35;9.55;;;8.75;;
13985;SDS011;7067;51.832;8.296;2023-07-09T03:31:00;10.40;;;9.35;;
13985;SDS011;7067;51.832;8.296;2023-07-09T03:33:26;10.50;;;9.15;;
13985;SDS011;7067;51.832;8.296;2023-07-09T03:35:51;10.13;;;9.32;;
13985;SDS011;7067;51.832;8.296;2023-07-09T03:38:17;9.75;;;9.05;;
13985;SDS011;7067;51.832;8.296;2023-07-09T03:40:43;9.95;;;9.10;;
13985;SDS011;7067;51.832;8.296;2023-07-09T03:43:09;9.88;;;8.88;;
13985;SDS011;7067;51.832;8.296;2023-07-09T03:45:35;9.35;;;8.35;;
13985;SDS011;7067;51.832;8.296;2023-07-09T03:48:01;9.95;;;9.05;;
13985;SDS011;7067;51.832;8.296;2023-07-09T03:50:27;9.02;;;8.23;;
13985;SDS011;7067;51.832;8.296;2023-07-09T03:52:52;9.45;;;8.57;;
13985;SDS011;7067;51.832;8.296;2023-07-09T03:55:18;9.77;;;8.88;;
13985;SDS011;7067;51.832;8.296;2023-07-09T03:57:43;9.13;;;8.23;;
13985;SDS011;7067;51.832;8.296;2023-07-09T04:00:09;9.23;;;8.35;;
13985;SDS011;7067;51.832;8.296;2023-07-09T04:02:40;9.45;;;8.70;;
13985;SDS011;7067;51.832;8.296;2023-07-09T04:05:08;9.52;;;8.73;;
13985;SDS011;7067;51.832;8.296;2023-07-09T04:07:34;9.32;;;8.50;;
13985;SDS011;7067;51.832;8.296;2023-07-09T04:10:00;9.35;;;8.48;;
13985;SDS011;7067;51.832;8.296;2023-07-09T04:12:25;8.07;;;7.28;;
13985;SDS011;7067;51.832;8.296;2023-07-09T04:14:50;8.20;;;7.50;;
13985;SDS011;7067;51.832;8.296;2023-07-09T04:17:16;9.20;;;8.40;;
13985;SDS011;7067;51.832;8.296;2023-07-09T04:19:41;9.60;;;8.70;;
13985;SDS011;7067;51.832;8.296;2023-07-09T04:22:07;8.88;;;8.07;;
13985;SDS011;7067;51.832;8.296;2023-07-09T04:24:34;9.57;;;8.60;;
13985;SDS011;7067;51.832;8.296;2023-07-09T04:27:00;8.60;;;7.97;;
13985;SDS011;7067;51.832;8.296;2023-07-09T04:29:31;9.15;;;8.25;;
13985;SDS011;7067;51.832;8.296;2023-07-09T04:32:07;8.60;;;7.80;;
13985;SDS011;7067;51.832;8.296;2023-07-09T04:34:33;8.70;;;7.90;;
13985;SDS011;7067;51.832;8.296;2023-07-09T04:36:58;11.13;;;8.60;;
13985;SDS011;7067;51.832;8.296;2023-07-09T04:39:24;8.52;;;7.20;;
13985;SDS011;7067;51.832;8.296;2023-07-09T04:41:49;8.18;;;7.47;;
13985;SDS011;7067;51.832;8.296;2023-07-09T04:44:15;9.77;;;8.68;;
13985;SDS011;7067;51.832;8.296;2023-07-09T04:46:40;14.05;;;7.28;;
13985;SDS011;7067;51.832;8.296;2023-07-09T04:49:06;8.35;;;7.70;;
13985;SDS011;7067;51.832;8.296;2023-07-09T04:51:31;10.45;;;8.32;;
13985;SDS011;7067;51.832;8.296;2023-07-09T04:53:56;8.15;;;7.45;;
13985;SDS011;7067;51.832;8.296;2023-07-09T04:56:22;9.60;;;8.70;;
13985;SDS011;7067;51.832;8.296;2023-07-09T04:58:47;10.10;;;9.20;;
13985;SDS011;7067;51.832;8.296;2023-07-09T05:01:13;10.43;;;9.02;;
13985;SDS011;7067;51.832;8.296;2023-07-09T05:03:38;9.35;;;8.50;;
13985;SDS011;7067;51.832;8.296;2023-07-09T05:06:04;9.98;;;8.45;;
13985;SDS011;7067;51.832;8.296;2023-07-09T05:08:29;9.95;;;8.90;;
13985;SDS011;7067;51.832;8.296;2023-07-09T05:10:56;9.52;;;8.68;;
13985;SDS011;7067;51.832;8.296;2023-07-09T05:13:21;9.13;;;8.32;;
13985;SDS011;7067;51.832;8.296;2023-07-09T05:15:47;8.48;;;7.78;;
13985;SDS011;7067;51.832;8.296;2023-07-09T05:18:13;9.35;;;8.60;;
13985;SDS011;7067;51.832;8.296;2023-07-09T05:20:39;11.55;;;8.43;;
13985;SDS011;7067;51.832;8.296;2023-07-09T05:23:05;9.23;;;8.40;;
13985;SDS011;7067;51.832;8.296;2023-07-09T05:25:30;9.35;;;8.55;;
13985;SDS011;7067;51.832;8.296;2023-07-09T05:27:56;9.13;;;8.32;;
13985;SDS011;7067;51.832;8.296;2023-07-09T05:30:21;9.45;;;8.50;;
13985;SDS011;7067;51.832;8.296;2023-07-09T05:32:47;12.85;;;8.68;;
13985;SDS011;7067;51.832;8.296;2023-07-09T05:35:12;8.98;;;8.13;;
13985;SDS011;7067;51.832;8.296;2023-07-09T05:37:38;9.93;;;7.35;;
13985;SDS011;7067;51.832;8.296;2023-07-09T05:40:04;9.30;;;8.25;;
13985;SDS011;7067;51.832;8.296;2023-07-09T05:42:31;8.77;;;8.00;;
13985;SDS011;7067;51.832;8.296;2023-07-09T05:44:56;7.45;;;6.85;;
13985;SDS011;7067;51.832;8.296;2023-07-09T05:47:22;7.18;;;6.57;;
13985;SDS011;7067;51.832;8.296;2023-07-09T05:49:48;8.38;;;7.68;;
13985;SDS011;7067;51.832;8.296;2023-07-09T05:52:15;7.90;;;7.18;;
13985;SDS011;7067;51.832;8.296;2023-07-09T05:54:42;7.38;;;6.75;;
13985;SDS011;7067;51.832;8.296;2023-07-09T05:57:07;6.95;;;6.35;;
13985;SDS011;7067;51.832;8.296;2023-07-09T05:59:32;7.40;;;6.80;;
13985;SDS011;7067;51.832;8.296;2023-07-09T06:01:58;9.20;;;7.40;;
13985;SDS011;7067;51.832;8.296;2023-07-09T06:04:25;8.05;;;7.22;;
13985;SDS011;7067;51.832;8.296;2023-07-09T06:06:51;7.97;;;7.28;;
13985;SDS011;7067;51.832;8.296;2023-07-09T06:09:16;7.43;;;6.82;;
13985;SDS011;7067;51.832;8.296;2023-07-09T06:11:42;12.35;;;6.82;;
13985;SDS011;7067;51.832;8.296;2023-07-09T06:14:07;7.43;;;6.82;;
13985;SDS011;7067;51.832;8.296;2023-07-09T06:16:33;7.78;;;7.13;;
13985;SDS011;7067;51.832;8.296;2023-07-09T06:18:58;7.53;;;6.97;;
13985;SDS011;7067;51.832;8.296;2023-07-09T06:21:23;8.18;;;7.50;;
13985;SDS011;7067;51.832;8.296;2023-07-09T06:23:49;6.78;;;6.15;;
13985;SDS011;7067;51.832;8.296;2023-07-09T06:26:14;7.57;;;6.40;;
13985;SDS011;7067;51.832;8.296;2023-07-09T06:28:39;7.95;;;7.10;;
13985;SDS011;7067;51.832;8.296;2023-07-09T06:31:05;7.50;;;6.75;;
13985;SDS011;7067;51.832;8.296;2023-07-09T06:33:30;7.07;;;6.35;;
13985;SDS011;7067;51.832;8.296;2023-07-09T06:35:56;6.88;;;6.32;;
13985;SDS011;7067;51.832;8.296;2023-07-09T06:38:23;6.10;;;5.53;;
13985;SDS011;7067;51.832;8.296;2023-07-09T06:40:48;7.00;;;6.50;;
13985;SDS011;7067;51.832;8.296;2023-07-09T06:43:14;7.43;;;6.78;;
13985;SDS011;7067;51.832;8.296;2023-07-09T06:45:47;6.80;;;5.47;;
13985;SDS011;7067;51.832;8.296;2023-07-09T06:48:13;7.45;;;6.75;;
13985;SDS011;7067;51.832;8.296;2023-07-09T06:50:38;7.65;;;6.85;;
13985;SDS011;7067;51.832;8.296;2023-07-09T06:53:04;6.38;;;5.75;;
13985;SDS011;7067;51.832;8.296;2023-07-09T06:55:29;6.10;;;5.57;;
13985;SDS011;7067;51.832;8.296;2023-07-09T06:57:55;6.90;;;6.30;;
13985;SDS011;7067;51.832;8.296;2023-07-09T07:00:20;7.00;;;6.35;;
13985;SDS011;7067;51.832;8.296;2023-07-09T07:02:46;8.88;;;5.63;;
13985;SDS011;7067;51.832;8.296;2023-07-09T07:05:11;6.03;;;5.30;;
13985;SDS011;7067;51.832;8.296;2023-07-09T07:07:36;6.45;;;5.82;;
13985;SDS011;7067;51.832;8.296;2023-07-09T07:10:02;7.25;;;6.18;;
13985;SDS011;7067;51.832;8.296;2023-07-09T07:12:29;6.85;;;6.00;;
13985;SDS011;7067;51.832;8.296;2023-07-09T07:14:55;7.75;;;5.68;;
13985;SDS011;7067;51.832;8.296;2023-07-09T07:17:21;9.65;;;6.38;;
13985;SDS011;7067;51.832;8.296;2023-07-09T07:19:46;6.78;;;5.72;;
13985;SDS011;7067;51.832;8.296;2023-07-09T07:22:12;6.65;;;5.63;;
13985;SDS011;7067;51.832;8.296;2023-07-09T07:24:38;5.95;;;5.45;;
13985;SDS011;7067;51.832;8.296;2023-07-09T07:27:03;6.13;;;5.57;;
13985;SDS011;7067;51.832;8.296;2023-07-09T07:29:29;10.32;;;5.70;;
13985;SDS011;7067;51.832;8.296;2023-07-09T07:31:54;5.70;;;4.97;;
13985;SDS011;7067;51.832;8.296;2023-07-09T07:34:20;11.55;;;5.53;;
13985;SDS011;7067;51.832;8.296;2023-07-09T07:36:45;5.65;;;5.15;;
13985;SDS011;7067;51.832;8.296;2023-07-09T07:39:10;6.90;;;5.57;;
13985;SDS011;7067;51.832;8.296;2023-07-09T07:41:36;7.63;;;5.65;;
13985;SDS011;7067;51.832;8.296;2023-07-09T07:44:01;7.85;;;6.00;;
13985;SDS011;7067;51.832;8.296;2023-07-09T07:46:27;4.97;;;4.55;;
13985;SDS011;7067;51.832;8.296;2023-07-09T07:48:54;7.95;;;5.50;;
13985;SDS011;7067;51.832;8.296;2023-07-09T07:51:19;6.55;;;5.97;;
13985;SDS011;7067;51.832;8.296;2023-07-09T07:53:47;6.07;;;5.15;;
13985;SDS011;7067;51.832;8.296;2023-07-09T07:56:13;5.40;;;4.90;;
13985;SDS011;7067;51.832;8.296;2023-07-09T07:58:39;6.18;;;5.68;;
13985;SDS011;7067;51.832;8.296;2023-07-09T08:01:04;5.70;;;4.35;;
13985;SDS011;7067;51.832;8.296;2023-07-09T08:03:30;6.55;;;4.80;;
13985;SDS011;7067;51.832;8.296;2023-07-09T08:05:55;5.40;;;4.90;;
13985;SDS011;7067;51.832;8.296;2023-07-09T08:08:20;5.15;;;4.70;;
13985;SDS011;7067;51.832;8.296;2023-07-09T08:10:46;5.57;;;5.03;;
13985;SDS011;7067;51.832;8.296;2023-07-09T08:13:11;6.50;;;4.80;;
13985;SDS011;7067;51.832;8.296;2023-07-09T08:15:38;6.05;;;5.55;;
13985;SDS011;7067;51.832;8.296;2023-07-09T08:18:03;6.35;;;5.75;;
13985;SDS011;7067;51.832;8.296;2023-07-09T08:20:29;6.25;;;5.00;;
13985;SDS011;7067;51.832;8.296;2023-07-09T08:22:54;5.68;;;5.22;;
13985;SDS011;7067;51.832;8.296;2023-07-09T08:25:19;5.10;;;4.70;;
13985;SDS011;7067;51.832;8.296;2023-07-09T08:27:45;5.28;;;4.80;;
13985;SDS011;7067;51.832;8.296;2023-07-09T08:30:10;7.57;;;5.40;;
13985;SDS011;7067;51.832;8.296;2023-07-09T08:32:36;5.00;;;4.60;;
13985;SDS011;7067;51.832;8.296;2023-07-09T08:35:01;6.68;;;5.07;;
13985;SDS011;7067;51.832;8.296;2023-07-09T08:37:27;7.13;;;5.18;;
13985;SDS011;7067;51.832;8.296;2023-07-09T08:39:52;5.47;;;4.93;;
13985;SDS011;7067;51.832;8.296;2023-07-09T08:42:21;5.57;;;4.95;;
13985;SDS011;7067;51.832;8.296;2023-07-09T08:45:03;6.72;;;4.63;;
13985;SDS011;7067;51.832;8.296;2023-07-09T08:50:22;5.57;;;5.18;;
13985;SDS011;7067;51.832;8.296;2023-07-09T08:52:50;6.47;;;4.97;;
13985;SDS011;7067;51.832;8.296;2023-07-09T08:58:00;5.32;;;4.75;;
13985;SDS011;7067;51.832;8.296;2023-07-09T09:00:34;6.20;;;4.57;;
13985;SDS011;7067;51.832;8.296;2023-07-09T09:05:50;6.25;;;5.07;;
13985;SDS011;7067;51.832;8.296;2023-07-09T09:10:58;5.75;;;4.90;;
13985;SDS011;7067;51.832;8.296;2023-07-09T09:13:46;5.30;;;4.80;;
13985;SDS011;7067;51.832;8.296;2023-07-09T09:16:21;5.40;;;5.00;;
13985;SDS011;7067;51.832;8.296;2023-07-09T09:18:50;5.25;;;4.75;;
13985;SDS011;7067;51.832;8.296;2023-07-09T09:21:33;5.88;;;5.32;;
13985;SDS011;7067;51.832;8.296;2023-07-09T09:24:23;5.53;;;5.03;;
13985;SDS011;7067;51.832;8.296;2023-07-09T09:26:51;5.72;;;4.70;;
13985;SDS011;7067;51.832;8.296;2023-07-09T09:29:18;9.88;;;5.85;;
13985;SDS011;7067;51.832;8.296;2023-07-09T09:31:45;5.40;;;4.82;;
13985;SDS011;7067;51.832;8.296;2023-07-09T09:34:17;6.15;;;5.07;;
13985;SDS011;7067;51.832;8.296;2023-07-09T09:36:44;6.82;;;5.13;;
13985;SDS011;7067;51.832;8.296;2023-07-09T09:39:09;5.55;;;5.05;;
13985;SDS011;7067;51.832;8.296;2023-07-09T09:41:35;6.28;;;5.47;;
13985;SDS011;7067;51.832;8.296;2023-07-09T09:44:02;5.22;;;4.75;;
13985;SDS011;7067;51.832;8.296;2023-07-09T09:46:27;5.65;;;5.15;;
13985;SDS011;7067;51.832;8.296;2023-07-09T09:48:53;6.80;;;4.35;;
13985;SDS011;7067;51.832;8.296;2023-07-09T09:51:20;5.50;;;4.63;;
13985;SDS011;7067;51.832;8.296;2023-07-09T09:53:49;5.10;;;4.70;;
13985;SDS011;7067;51.832;8.296;2023-07-09T09:56:20;5.53;;;4.80;;
13985;SDS011;7067;51.832;8.296;2023-07-09T09:58:53;5.88;;;5.47;;
13985;SDS011;7067;51.832;8.296;2023-07-09T10:01:19;7.68;;;5.38;;
13985;SDS011;7067;51.832;8.296;2023-07-09T10:03:54;6.93;;;5.38;;
13985;SDS011;7067;51.832;8.296;2023-07-09T10:06:23;5.70;;;5.20;;
13985;SDS011;7067;51.832;8.296;2023-07-09T10:15:11;6.97;;;5.03;;
13985;SDS011;7067;51.832;8.296;2023-07-09T10:17:54;5.60;;;4.90;;
13985;SDS011;7067;51.832;8.296;2023-07-09T10:20:27;4.65;;;4.25;;
13985;SDS011;7067;51.832;8.296;2023-07-09T10:31:07;5.15;;;4.68;;
13985;SDS011;7067;51.832;8.296;2023-07-09T10:39:11;5.43;;;5.03;;
13985;SDS011;7067;51.832;8.296;2023-07-09T10:41:40;6.65;;;5.40;;
13985;SDS011;7067;51.832;8.296;2023-07-09T10:44:25;5.60;;;5.10;;
13985;SDS011;7067;51.832;8.296;2023-07-09T10:46:59;4.85;;;4.45;;
13985;SDS011;7067;51.832;8.296;2023-07-09T10:49:33;6.00;;;5.03;;
13985;SDS011;7067;51.832;8.296;2023-07-09T10:52:06;5.65;;;4.90;;
13985;SDS011;7067;51.832;8.296;2023-07-09T10:54:55;5.72;;;4.60;;
13985;SDS011;7067;51.832;8.296;2023-07-09T10:57:34;4.60;;;4.15;;
13985;SDS011;7067;51.832;8.296;2023-07-09T11:00:11;5.60;;;4.20;;
13985;SDS011;7067;51.832;8.296;2023-07-09T11:02:43;4.43;;;4.03;;
13985;SDS011;7067;51.832;8.296;2023-07-09T11:05:09;4.10;;;3.80;;
13985;SDS011;7067;51.832;8.296;2023-07-09T11:10:29;4.03;;;3.70;;
13985;SDS011;7067;51.832;8.296;2023-07-09T11:15:32;6.20;;;4.78;;
13985;SDS011;7067;51.832;8.296;2023-07-09T11:18:01;4.20;;;3.80;;
13985;SDS011;7067;51.832;8.296;2023-07-09T11:20:33;5.83;;;4.63;;
13985;SDS011;7067;51.832;8.296;2023-07-09T11:23:04;9.07;;;4.60;;
13985;SDS011;7067;51.832;8.296;2023-07-09T11:25:44;4.82;;;4.28;;
13985;SDS011;7067;51.832;8.296;2023-07-09T11:28:11;4.88;;;4.28;;
13985;SDS011;7067;51.832;8.296;2023-07-09T11:30:53;5.30;;;4.82;;
13985;SDS011;7067;51.832;8.296;2023-07-09T11:33:20;6.93;;;4.45;;
13985;SDS011;7067;51.832;8.296;2023-07-09T11:35:53;4.95;;;4.10;;
13985;SDS011;7067;51.832;8.296;2023-07-09T11:38:36;4.43;;;4.03;;
13985;SDS011;7067;51.832;8.296;2023-07-09T11:41:22;10.93;;;3.95;;
13985;SDS011;7067;51.832;8.296;2023-07-09T11:43:49;4.47;;;3.92;;
13985;SDS011;7067;51.832;8.296;2023-07-09T11:46:17;8.93;;;4.57;;
13985;SDS011;7067;51.832;8.296;2023-07-09T11:48:44;4.35;;;3.97;;
13985;SDS011;7067;51.832;8.296;2023-07-09T11:51:15;5.43;;;4.03;;
13985;SDS011;7067;51.832;8.296;2023-07-09T11:53:47;5.75;;;3.95;;
13985;SDS011;7067;51.832;8.296;2023-07-09T11:56:13;4.38;;;3.97;;
13985;SDS011;7067;51.832;8.296;2023-07-09T11:58:51;4.57;;;4.18;;
13985;SDS011;7067;51.832;8.296;2023-07-09T12:01:18;4.68;;;4.28;;
13985;SDS011;7067;51.832;8.296;2023-07-09T12:03:46;3.80;;;3.50;;
13985;SDS011;7067;51.832;8.296;2023-07-09T12:06:19;6.93;;;4.78;;
13985;SDS011;7067;51.832;8.296;2023-07-09T12:08:46;3.92;;;3.63;;
13985;SDS011;7067;51.832;8.296;2023-07-09T12:13:52;3.95;;;3.40;;
13985;SDS011;7067;51.832;8.296;2023-07-09T12:16:28;4.80;;;3.83;;
13985;SDS011;7067;51.832;8.296;2023-07-09T12:18:55;6.18;;;4.32;;
13985;SDS011;7067;51.832;8.296;2023-07-09T12:21:22;5.72;;;4.53;;
13985;SDS011;7067;51.832;8.296;2023-07-09T12:23:48;4.05;;;3.75;;
13985;SDS011;7067;51.832;8.296;2023-07-09T12:26:15;4.38;;;3.30;;
13985;SDS011;7067;51.832;8.296;2023-07-09T12:28:41;4.53;;;3.97;;
13985;SDS011;7067;51.832;8.296;2023-07-09T12:31:12;4.47;;;4.07;;
13985;SDS011;7067;51.832;8.296;2023-07-09T12:33:45;4.22;;;3.88;;
13985;SDS011;7067;51.832;8.296;2023-07-09T12:36:14;3.97;;;3.40;;
13985;SDS011;7067;51.832;8.296;2023-07-09T12:38:42;4.88;;;4.22;;
13985;SDS011;7067;51.832;8.296;2023-07-09T12:41:28;4.38;;;3.97;;
13985;SDS011;7067;51.832;8.296;2023-07-09T12:43:59;4.65;;;3.75;;
13985;SDS011;7067;51.832;8.296;2023-07-09T12:46:25;4.68;;;3.83;;
13985;SDS011;7067;51.832;8.296;2023-07-09T12:48:50;5.20;;;3.53;;
13985;SDS011;7067;51.832;8.296;2023-07-09T12:51:20;4.20;;;3.58;;
13985;SDS011;7067;51.832;8.296;2023-07-09T12:56:53;4.30;;;3.25;;
13985;SDS011;7067;51.832;8.296;2023-07-09T13:04:21;3.88;;;3.53;;
13985;SDS011;7067;51.832;8.296;2023-07-09T13:06:52;3.70;;;3.40;;
13985;SDS011;7067;51.832;8.296;2023-07-09T13:09:22;5.85;;;3.67;;
13985;SDS011;7067;51.832;8.296;2023-07-09T13:11:48;8.27;;;3.60;;
13985;SDS011;7067;51.832;8.296;2023-07-09T13:14:18;3.38;;;3.08;;
13985;SDS011;7067;51.832;8.296;2023-07-09T13:16:47;4.95;;;3.58;;
13985;SDS011;7067;51.832;8.296;2023-07-09T13:19:13;3.60;;;3.30;;
13985;SDS011;7067;51.832;8.296;2023-07-09T13:21:39;4.43;;;3.72;;
13985;SDS011;7067;51.832;8.296;2023-07-09T13:24:20;3.95;;;3.63;;
13985;SDS011;7067;51.832;8.296;2023-07-09T13:26:48;3.90;;;3.50;;
13985;SDS011;7067;51.832;8.296;2023-07-09T13:29:14;4.88;;;4.38;;
13985;SDS011;7067;51.832;8.296;2023-07-09T13:31:40;4.10;;;3.55;;
13985;SDS011;7067;51.832;8.296;2023-07-09T13:34:08;5.80;;;3.58;;
13985;SDS011;7067;51.832;8.296;2023-07-09T13:36:42;3.50;;;3.20;;
13985;SDS011;7067;51.832;8.296;2023-07-09T13:39:09;4.53;;;3.03;;
13985;SDS011;7067;51.832;8.296;2023-07-09T13:41:35;3.83;;;3.53;;
13985;SDS011;7067;51.832;8.296;2023-07-09T13:44:01;5.22;;;4.72;;
13985;SDS011;7067;51.832;8.296;2023-07-09T13:46:26;6.38;;;3.38;;
13985;SDS011;7067;51.832;8.296;2023-07-09T13:48:51;4.53;;;3.95;;
13985;SDS011;7067;51.832;8.296;2023-07-09T13:51:18;4.18;;;3.60;;
13985;SDS011;7067;51.832;8.296;2023-07-09T13:53:45;3.67;;;3.38;;
13985;SDS011;7067;51.832;8.296;2023-07-09T13:56:11;4.95;;;3.53;;
13985;SDS011;7067;51.832;8.296;2023-07-09T13:58:37;5.63;;;3.38;;
13985;SDS011;7067;51.832;8.296;2023-07-09T14:01:12;3.88;;;3.58;;
13985;SDS011;7067;51.832;8.296;2023-07-09T14:03:38;4.47;;;3.90;;
13985;SDS011;7067;51.832;8.296;2023-07-09T14:06:04;5.45;;;3.22;;
13985;SDS011;7067;51.832;8.296;2023-07-09T14:08:30;3.83;;;3.42;;
13985;SDS011;7067;51.832;8.296;2023-07-09T14:10:55;3.40;;;3.10;;
13985;SDS011;7067;51.832;8.296;2023-07-09T14:13:21;4.10;;;3.03;;
13985;SDS011;7067;51.832;8.296;2023-07-09T14:15:48;4.13;;;3.55;;
13985;SDS011;7067;51.832;8.296;2023-07-09T14:18:23;3.97;;;3.58;;
13985;SDS011;7067;51.832;8.296;2023-07-09T14:20:49;4.60;;;3.67;;
13985;SDS011;7067;51.832;8.296;2023-07-09T14:23:16;7.03;;;3.15;;
13985;SDS011;7067;51.832;8.296;2023-07-09T14:25:42;4.68;;;4.28;;
13985;SDS011;7067;51.832;8.296;2023-07-09T14:28:10;6.20;;;3.95;;
13985;SDS011;7067;51.832;8.296;2023-07-09T14:30:36;4.80;;;3.50;;
13985;SDS011;7067;51.832;8.296;2023-07-09T14:33:02;4.18;;;3.78;;
13985;SDS011;7067;51.832;8.296;2023-07-09T14:35:27;5.47;;;3.83;;
13985;SDS011;7067;51.832;8.296;2023-07-09T14:37:54;5.03;;;3.35;;
13985;SDS011;7067;51.832;8.296;2023-07-09T14:40:20;4.28;;;3.90;;
13985;SDS011;7067;51.832;8.296;2023-07-09T14:42:46;3.85;;;3.55;;
13985;SDS011;7067;51.832;8.296;2023-07-09T14:45:17;4.10;;;3.70;;
13985;SDS011;7067;51.832;8.296;2023-07-09T14:47:50;4.47;;;4.10;;
13985;SDS011;7067;51.832;8.296;2023-07-09T14:50:16;4.15;;;3.78;;
13985;SDS011;7067;51.832;8.296;2023-07-09T14:52:43;5.22;;;3.35;;
13985;SDS011;7067;51.832;8.296;2023-07-09T14:55:16;4.22;;;3.92;;
13985;SDS011;7067;51.832;8.296;2023-07-09T14:57:43;3.75;;;3.42;;
13985;SDS011;7067;51.832;8.296;2023-07-09T15:00:16;4.72;;;4.22;;
13985;SDS011;7067;51.832;8.296;2023-07-09T15:02:43;5.28;;;3.97;;
13985;SDS011;7067;51.832;8.296;2023-07-09T15:05:14;4.72;;;3.20;;
13985;SDS011;7067;51.832;8.296;2023-07-09T15:07:40;4.88;;;3.53;;
13985;SDS011;7067;51.832;8.296;2023-07-09T15:10:05;7.38;;;3.65;;
13985;SDS011;7067;51.832;8.296;2023-07-09T15:12:33;4.82;;;4.38;;
13985;SDS011;7067;51.832;8.296;2023-07-09T15:15:01;6.13;;;3.80;;
13985;SDS011;7067;51.832;8.296;2023-07-09T15:17:47;4.47;;;4.07;;
13985;SDS011;7067;51.832;8.296;2023-07-09T15:20:14;4.38;;;3.97;;
13985;SDS011;7067;51.832;8.296;2023-07-09T15:22:40;5.60;;;3.88;;
13985;SDS011;7067;51.832;8.296;2023-07-09T15:25:11;5.38;;;4.53;;
13985;SDS011;7067;51.832;8.296;2023-07-09T15:27:38;4.50;;;4.10;;
13985;SDS011;7067;51.832;8.296;2023-07-09T15:30:14;3.70;;;3.40;;
13985;SDS011;7067;51.832;8.296;2023-07-09T15:35:09;4.32;;;3.92;;
13985;SDS011;7067;51.832;8.296;2023-07-09T15:37:34;5.00;;;3.83;;
13985;SDS011;7067;51.832;8.296;2023-07-09T15:40:00;5.45;;;4.00;;
13985;SDS011;7067;51.832;8.296;2023-07-09T15:42:26;6.38;;;3.53;;
13985;SDS011;7067;51.832;8.296;2023-07-09T15:44:51;4.93;;;4.43;;
13985;SDS011;7067;51.832;8.296;2023-07-09T15:47:17;4.93;;;4.20;;
13985;SDS011;7067;51.832;8.296;2023-07-09T15:49:44;5.22;;;4.72;;
13985;SDS011;7067;51.832;8.296;2023-07-09T15:52:10;9.02;;;5.13;;
13985;SDS011;7067;51.832;8.296;2023-07-09T15:54:35;5.88;;;4.68;;